createdAt,value
2022-12-29T05:02:33.349Z,5.32
2022-12-29T05:05:00.649Z,6.85
2022-12-29T05:07:27.320Z,8.38
2022-12-29T05:09:53.924Z,5.90
2022-12-29T05:12:20.578Z,4.73
2022-12-29T05:14:47.129Z,13.25
2022-12-29T05:17:13.706Z,7.05
2022-12-29T05:19:40.346Z,9.45
2022-12-29T05:22:06.881Z,6.10
2022-12-29T05:24:34.026Z,7.40
2022-12-29T05:27:00.613Z,7.05
2022-12-29T05:29:27.185Z,8.85
2022-12-29T05:31:53.785Z,9.88
2022-12-29T05:34:20.275Z,10.32
2022-12-29T05:36:46.788Z,9.90
2022-12-29T05:39:13.426Z,6.85
2022-12-29T05:41:40.010Z,9.48
2022-12-29T05:44:06.614Z,5.50
2022-12-29T05:46:33.238Z,8.13
2022-12-29T05:49:00.120Z,9.67
2022-12-29T05:51:26.714Z,7.55
2022-12-29T05:53:53.369Z,8.80
2022-12-29T05:56:19.917Z,8.50
2022-12-29T05:58:46.547Z,8.50
2022-12-29T06:01:13.186Z,8.37
2022-12-29T06:03:44.493Z,5.97
2022-12-29T06:06:14.467Z,4.00
2022-12-29T06:08:40.984Z,9.48
2022-12-29T06:11:07.515Z,8.32
2022-12-29T06:13:35.233Z,6.00
2022-12-29T06:16:01.846Z,11.77
2022-12-29T06:18:28.416Z,5.90
2022-12-29T06:20:55.217Z,6.85
2022-12-29T06:23:21.792Z,5.05
2022-12-29T06:25:49.550Z,8.07
2022-12-29T06:28:16.184Z,9.10
2022-12-29T06:30:48.947Z,9.13
2022-12-29T06:33:16.402Z,8.07
2022-12-29T06:35:46.946Z,9.02
2022-12-29T06:38:13.680Z,9.67
2022-12-29T06:40:42.271Z,5.22
2022-12-29T06:43:08.963Z,8.82
2022-12-29T06:45:35.611Z,6.40
2022-12-29T06:48:02.196Z,9.30
2022-12-29T06:50:28.748Z,5.47
2022-12-29T06:52:55.285Z,5.47
2022-12-29T06:55:22.292Z,7.30
2022-12-29T06:57:48.879Z,8.48
2022-12-29T07:00:22.312Z,9.15
2022-12-29T07:02:49.569Z,11.27
2022-12-29T07:05:16.302Z,7.93
2022-12-29T07:07:42.868Z,9.60
2022-12-29T07:10:09.693Z,7.80
2022-12-29T07:12:36.257Z,10.43
2022-12-29T07:15:02.962Z,10.17
2022-12-29T07:17:29.584Z,11.45
2022-12-29T07:19:56.139Z,8.40
2022-12-29T07:22:22.838Z,9.95
2022-12-29T07:24:49.377Z,12.93
2022-12-29T07:27:15.901Z,10.33
2022-12-29T07:29:42.493Z,9.30
2022-12-29T07:32:09.182Z,5.53
2022-12-29T07:34:35.752Z,9.25
2022-12-29T07:37:02.287Z,9.48
2022-12-29T07:39:28.874Z,9.30
2022-12-29T07:42:01.101Z,5.72
2022-12-29T07:44:31.003Z,7.93
2022-12-29T07:46:58.841Z,9.00
2022-12-29T07:49:25.983Z,8.70
2022-12-29T07:51:52.797Z,10.07
2022-12-29T07:54:19.520Z,7.55
2022-12-29T07:56:46.436Z,7.20
2022-12-29T07:59:15.836Z,10.35
2022-12-29T08:01:42.688Z,8.60
2022-12-29T08:04:09.438Z,11.53
2022-12-29T08:06:36.395Z,8.32
2022-12-29T08:09:12.237Z,7.55
2022-12-29T08:11:44.294Z,9.82
2022-12-29T08:14:11.043Z,8.80
2022-12-29T08:16:37.629Z,9.87
2022-12-29T08:19:06.063Z,7.22
2022-12-29T08:21:32.690Z,8.65
2022-12-29T08:24:00.166Z,9.52
2022-12-29T08:26:27.087Z,10.10
2022-12-29T08:28:55.445Z,9.70
2022-12-29T08:31:22.271Z,9.15
2022-12-29T08:33:48.921Z,4.15
2022-12-29T08:36:15.655Z,9.50
2022-12-29T08:38:42.208Z,8.35
2022-12-29T08:41:09.076Z,10.30
2022-12-29T08:43:35.754Z,9.13
2022-12-29T08:46:02.413Z,8.52
2022-12-29T08:48:29.049Z,6.88
2022-12-29T08:50:55.630Z,9.52
2022-12-29T08:53:22.241Z,7.50
2022-12-29T08:56:04.767Z,9.57
2022-12-29T08:58:32.865Z,7.95
2022-12-29T09:01:00.827Z,8.18
2022-12-29T09:06:16.472Z,7.10
2022-12-29T09:08:43.300Z,7.68
2022-12-29T09:11:30.187Z,7.70
2022-12-29T09:13:56.825Z,8.00
2022-12-29T09:16:24.739Z,10.40
2022-12-29T09:18:51.940Z,12.77
2022-12-29T09:21:18.624Z,8.52
2022-12-29T09:23:45.215Z,10.65
2022-12-29T09:26:11.873Z,11.93
2022-12-29T09:28:38.595Z,9.88
2022-12-29T09:31:05.468Z,11.63
2022-12-29T09:33:34.444Z,10.23
2022-12-29T09:36:01.187Z,7.55
2022-12-29T09:38:28.658Z,10.05
2022-12-29T09:41:00.953Z,7.35
2022-12-29T09:43:52.206Z,6.63
2022-12-29T09:46:30.735Z,9.75
2022-12-29T09:49:16.636Z,14.90
2022-12-29T09:51:47.843Z,9.40
2022-12-29T09:54:36.221Z,10.20
2022-12-29T09:57:03.091Z,10.23
2022-12-29T09:59:41.421Z,12.50
2022-12-29T10:02:28.068Z,12.45
2022-12-29T10:04:54.652Z,11.02
2022-12-29T10:07:42.867Z,11.25
2022-12-29T10:10:18.530Z,14.00
2022-12-29T10:12:56.964Z,12.50
2022-12-29T10:15:57.641Z,14.02
2022-12-29T10:18:43.963Z,11.80
2022-12-29T10:21:25.382Z,13.20
2022-12-29T10:23:54.193Z,10.33
2022-12-29T10:26:34.951Z,8.52
2022-12-29T10:29:07.497Z,13.40
2022-12-29T10:31:42.371Z,8.65
2022-12-29T10:34:23.790Z,14.63
2022-12-29T10:36:57.061Z,11.57
2022-12-29T10:39:28.576Z,14.65
2022-12-29T10:42:21.288Z,9.93
2022-12-29T10:44:48.236Z,9.98
2022-12-29T10:47:20.483Z,12.13
2022-12-29T10:49:48.808Z,10.37
2022-12-29T10:52:18.305Z,15.38
2022-12-29T10:55:12.103Z,14.43
2022-12-29T10:57:41.893Z,16.33
2022-12-29T11:00:17.542Z,16.90
2022-12-29T11:02:50.568Z,13.57
2022-12-29T11:05:41.352Z,14.95
2022-12-29T11:08:16.360Z,11.52
2022-12-29T11:10:44.436Z,15.82
2022-12-29T11:13:18.662Z,10.15
2022-12-29T11:15:48.002Z,13.70
2022-12-29T11:18:26.710Z,13.52
2022-12-29T11:21:05.108Z,13.13
2022-12-29T11:23:40.543Z,16.88
2022-12-29T11:26:07.145Z,15.68
2022-12-29T11:28:34.389Z,12.60
2022-12-29T11:31:04.027Z,12.40
2022-12-29T11:33:31.745Z,13.93
2022-12-29T11:36:09.001Z,11.85
2022-12-29T11:38:40.102Z,13.75
2022-12-29T11:41:11.105Z,12.30
2022-12-29T11:43:41.140Z,12.90
2022-12-29T11:46:08.436Z,10.50
2022-12-29T11:48:41.074Z,11.35
2022-12-29T11:51:08.926Z,9.85
2022-12-29T11:53:48.135Z,12.50
2022-12-29T11:56:39.968Z,10.93
2022-12-29T11:59:30.952Z,14.88
2022-12-29T12:01:59.978Z,14.27
2022-12-29T12:04:31.823Z,8.13
2022-12-29T12:07:36.118Z,9.00
2022-12-29T12:10:08.034Z,10.93
2022-12-29T12:12:40.984Z,12.60
2022-12-29T12:15:16.994Z,14.45
2022-12-29T12:18:09.541Z,13.80
2022-12-29T12:20:42.069Z,13.80
2022-12-29T12:23:28.706Z,14.43
2022-12-29T12:26:34.161Z,14.25
2022-12-29T12:29:10.163Z,9.15
2022-12-29T12:31:48.124Z,12.43
2022-12-29T12:34:33.089Z,13.83
2022-12-29T12:37:12.057Z,14.48
2022-12-29T12:40:03.366Z,9.77
2022-12-29T12:42:30.044Z,16.35
2022-12-29T12:45:28.167Z,11.23
2022-12-29T12:47:57.442Z,13.57
2022-12-29T12:50:39.285Z,13.02
2022-12-29T12:53:36.029Z,11.90
2022-12-29T12:56:22.397Z,13.07
2022-12-29T12:59:27.799Z,11.65
2022-12-29T13:02:12.360Z,12.77
2022-12-29T13:05:00.500Z,11.88
2022-12-29T13:07:53.986Z,6.97
2022-12-29T13:10:33.051Z,14.70
2022-12-29T13:13:24.533Z,16.23
2022-12-29T13:16:14.549Z,9.97
2022-12-29T13:19:13.582Z,10.63
2022-12-29T13:22:09.581Z,10.57
2022-12-29T13:25:08.466Z,10.85
2022-12-29T13:27:46.080Z,6.35
2022-12-29T13:30:21.322Z,6.43
2022-12-29T13:33:05.448Z,6.47
2022-12-29T13:36:13.774Z,5.07
2022-12-29T13:38:44.072Z,6.30
2022-12-29T13:41:17.628Z,6.95
2022-12-29T13:43:47.774Z,5.65
2022-12-29T13:46:19.608Z,6.23
2022-12-29T13:48:54.594Z,5.57
2022-12-29T13:51:27.767Z,7.82
2022-12-29T13:53:59.590Z,10.77
2022-12-29T13:56:43.583Z,7.50
2022-12-29T13:59:21.908Z,9.43
2022-12-29T14:01:59.334Z,6.90
2022-12-29T14:04:28.838Z,12.80
2022-12-29T14:07:06.044Z,17.35
2022-12-29T14:09:41.241Z,9.30
2022-12-29T14:12:43.103Z,7.80
2022-12-29T14:15:12.428Z,10.45
2022-12-29T14:17:41.439Z,13.02
2022-12-29T14:20:21.855Z,9.73
2022-12-29T14:23:16.868Z,8.23
2022-12-29T14:26:07.626Z,11.30
2022-12-29T14:28:36.049Z,7.68
2022-12-29T14:31:17.805Z,12.30
2022-12-29T14:34:12.166Z,7.38
2022-12-29T14:37:06.107Z,9.27
2022-12-29T14:39:42.273Z,8.87
2022-12-29T14:42:11.858Z,8.95
2022-12-29T14:45:06.770Z,7.22
2022-12-29T14:47:39.368Z,9.02
2022-12-29T14:50:06.077Z,12.20
2022-12-29T14:52:33.246Z,10.03
2022-12-29T14:55:18.111Z,8.10
2022-12-29T14:57:58.515Z,7.53
2022-12-29T15:00:32.588Z,5.07
2022-12-29T15:03:20.831Z,5.80
2022-12-29T15:05:49.648Z,6.90
2022-12-29T15:08:23.876Z,6.78
2022-12-29T15:11:00.444Z,8.25
2022-12-29T15:13:39.282Z,10.30
2022-12-29T15:16:21.362Z,7.68
2022-12-29T15:18:47.978Z,7.70
2022-12-29T15:21:16.500Z,8.45
2022-12-29T15:23:47.061Z,10.30
2022-12-29T15:26:21.915Z,9.48
2022-12-29T15:28:49.559Z,8.02
2022-12-29T15:31:30.046Z,7.03
2022-12-29T15:34:12.425Z,14.00
2022-12-29T15:36:41.056Z,6.57
2022-12-29T15:39:31.423Z,7.07
2022-12-29T15:42:02.183Z,7.00
2022-12-29T15:44:44.144Z,7.93
2022-12-29T15:47:29.709Z,5.18
2022-12-29T15:50:29.916Z,6.95
2022-12-29T15:52:57.433Z,7.03
2022-12-29T15:55:35.948Z,5.75
2022-12-29T15:58:05.940Z,4.53
2022-12-29T16:00:38.519Z,5.57
2022-12-29T16:03:07.442Z,7.38
2022-12-29T16:05:39.428Z,6.15
2022-12-29T16:08:31.074Z,5.43
2022-12-29T16:10:58.859Z,7.77
2022-12-29T16:13:38.315Z,4.72
2022-12-29T16:16:17.410Z,6.82
2022-12-29T16:18:45.305Z,6.07
2022-12-29T16:21:22.738Z,8.57
2022-12-29T16:23:52.310Z,6.57
2022-12-29T16:26:21.649Z,4.47
2022-12-29T16:28:51.194Z,6.72
2022-12-29T16:31:25.398Z,7.53
2022-12-29T16:33:55.464Z,5.57
2022-12-29T16:36:35.166Z,6.43
2022-12-29T16:39:24.754Z,6.30
2022-12-29T16:41:51.867Z,5.50
2022-12-29T16:44:20.464Z,8.95
2022-12-29T16:47:08.470Z,8.13
2022-12-29T16:49:39.532Z,8.43
2022-12-29T16:52:29.838Z,5.45
2022-12-29T16:55:01.130Z,7.47
2022-12-29T16:57:31.062Z,8.57
2022-12-29T17:00:01.604Z,8.90
2022-12-29T17:02:32.533Z,10.23
2022-12-29T17:04:59.268Z,8.48
2022-12-29T17:07:28.692Z,9.85
2022-12-29T17:09:55.525Z,7.93
2022-12-29T17:12:25.821Z,14.90
2022-12-29T17:14:59.009Z,9.77
2022-12-29T17:17:39.475Z,10.75
2022-12-29T17:20:19.503Z,9.13
2022-12-29T17:22:47.093Z,6.25
2022-12-29T17:25:16.131Z,10.55
2022-12-29T17:28:23.127Z,10.10
2022-12-29T17:30:50.341Z,7.18
2022-12-29T17:33:18.976Z,9.40
2022-12-29T17:35:48.353Z,8.45
2022-12-29T17:38:21.800Z,8.70
2022-12-29T17:40:49.071Z,6.60
2022-12-29T17:43:16.399Z,11.63
2022-12-29T17:45:44.650Z,5.65
2022-12-29T17:48:16.564Z,10.18
2022-12-29T17:50:44.316Z,6.95
2022-12-29T17:53:31.292Z,11.27
2022-12-29T17:55:57.890Z,14.95
2022-12-29T17:58:29.248Z,10.43
2022-12-29T18:00:59.062Z,7.88
2022-12-29T18:03:37.587Z,9.20
2022-12-29T18:06:06.716Z,9.37
2022-12-29T18:08:34.627Z,13.77
2022-12-29T18:11:01.447Z,12.88
2022-12-29T18:13:39.351Z,8.95
2022-12-29T18:16:11.360Z,9.38
2022-12-29T18:18:38.340Z,9.50
2022-12-29T18:21:05.024Z,10.60
2022-12-29T18:23:35.344Z,9.02
2022-12-29T18:26:27.062Z,10.25
2022-12-29T18:28:55.435Z,10.23
2022-12-29T18:31:28.569Z,16.03
2022-12-29T18:33:57.480Z,10.70
2022-12-29T18:36:24.821Z,9.05
2022-12-29T18:38:53.960Z,18.67
2022-12-29T18:41:26.379Z,10.70
2022-12-29T18:43:52.969Z,12.00
2022-12-29T18:46:23.285Z,11.13
2022-12-29T18:48:50.789Z,12.88
2022-12-29T18:51:21.119Z,11.10
2022-12-29T18:53:48.096Z,15.15
2022-12-29T18:56:14.709Z,12.27
2022-12-29T18:58:42.302Z,10.10
2022-12-29T19:01:24.970Z,16.48
2022-12-29T19:03:51.924Z,14.38
2022-12-29T19:06:20.856Z,16.15
2022-12-29T19:08:47.476Z,14.77
2022-12-29T19:11:14.119Z,19.27
2022-12-29T19:13:40.737Z,12.00
2022-12-29T19:16:09.135Z,11.65
2022-12-29T19:18:45.260Z,12.45
2022-12-29T19:21:12.460Z,17.40
2022-12-29T19:23:39.395Z,16.20
2022-12-29T19:26:06.087Z,15.40
2022-12-29T19:28:32.752Z,13.07
2022-12-29T19:31:01.474Z,19.15
2022-12-29T19:33:28.508Z,17.10
2022-12-29T19:36:00.100Z,15.10
2022-12-29T19:38:27.068Z,18.08
2022-12-29T19:40:53.698Z,14.38
2022-12-29T19:43:20.727Z,17.48
2022-12-29T19:45:47.355Z,17.33
2022-12-29T19:48:21.529Z,15.13
2022-12-29T19:50:48.294Z,22.90
2022-12-29T19:53:15.194Z,15.15
2022-12-29T19:55:43.496Z,16.77
2022-12-29T19:58:10.143Z,12.87
2022-12-29T20:00:40.061Z,12.27
2022-12-29T20:03:06.857Z,15.93
2022-12-29T20:05:33.642Z,19.25
2022-12-29T20:08:00.310Z,12.02
2022-12-29T20:10:27.007Z,14.13
2022-12-29T20:12:53.604Z,14.90
2022-12-29T20:15:20.216Z,12.20
2022-12-29T20:18:12.455Z,18.52
2022-12-29T20:20:34.688Z,14.50
2022-12-29T20:23:01.247Z,11.40
2022-12-29T20:25:46.659Z,14.20
2022-12-29T20:28:14.990Z,16.95
2022-12-29T20:30:41.636Z,25.15
2022-12-29T20:33:08.912Z,14.30
2022-12-29T20:35:37.058Z,11.20
2022-12-29T20:38:04.179Z,13.57
2022-12-29T20:40:30.779Z,12.40
2022-12-29T20:42:57.391Z,15.07
2022-12-29T20:45:24.119Z,15.18
2022-12-29T20:47:50.785Z,12.87
2022-12-29T20:50:17.423Z,13.60
2022-12-29T20:52:44.042Z,17.17
2022-12-29T20:55:10.769Z,15.90
2022-12-29T20:58:13.611Z,14.95
2022-12-29T21:00:25.801Z,10.53
2022-12-29T21:02:53.112Z,13.82
2022-12-29T21:05:24.481Z,13.20
2022-12-29T21:07:52.383Z,13.57
2022-12-29T21:10:18.978Z,11.68
2022-12-29T21:12:46.196Z,10.23
2022-12-29T21:15:16.123Z,9.90
2022-12-29T21:17:43.929Z,11.32
2022-12-29T21:20:19.829Z,13.45
2022-12-29T21:22:47.511Z,15.75
2022-12-29T21:25:14.239Z,10.10
2022-12-29T21:27:44.325Z,12.73
2022-12-29T21:30:11.590Z,14.52
2022-12-29T21:32:38.285Z,14.05
2022-12-29T21:35:05.300Z,9.88
2022-12-29T21:37:31.808Z,10.70
2022-12-29T21:39:58.403Z,9.45
2022-12-29T21:42:27.501Z,15.88
2022-12-29T21:45:18.306Z,11.50
2022-12-29T21:48:05.016Z,14.80
2022-12-29T21:50:31.549Z,12.00
2022-12-29T21:52:58.085Z,14.05
2022-12-29T21:55:24.656Z,10.77
2022-12-29T21:58:09.585Z,11.45
2022-12-29T22:00:54.850Z,11.45
2022-12-29T22:03:41.006Z,16.57
2022-12-29T22:06:29.479Z,15.73
2022-12-29T22:09:14.418Z,16.23
2022-12-29T22:11:59.276Z,11.23
2022-12-29T22:14:25.831Z,17.00
2022-12-29T22:16:52.432Z,18.17
2022-12-29T22:19:19.039Z,11.25
2022-12-29T22:21:45.593Z,9.30
2022-12-29T22:24:12.118Z,13.48
2022-12-29T22:26:38.684Z,12.23
2022-12-29T22:29:05.229Z,13.73
2022-12-29T22:31:32.743Z,8.68
2022-12-29T22:34:01.998Z,13.40
2022-12-29T22:36:29.330Z,10.02
2022-12-29T22:38:55.975Z,13.95
2022-12-29T22:41:22.592Z,13.20
2022-12-29T22:43:49.329Z,15.05
2022-12-29T22:46:15.864Z,10.50
2022-12-29T22:48:42.471Z,11.65
2022-12-29T22:51:09.023Z,14.00
2022-12-29T22:53:35.593Z,12.30
2022-12-29T22:56:10.581Z,12.20
2022-12-29T22:58:41.790Z,11.18
